Time;durP1;ratioP1;P1;durP2;ratioP2;P2;SDS_P1;SDS_P2;PMS_P1;PMS_P2;Temp;Humidity;BMP_temperature;BMP_pressure;BME280_temperature;BME280_humidity;BME280_pressure;Samples;Min_cycle;Max_cycle;Signal;HPM_P1;HPM_P2
2024/03/25 00:09:13;;;;;;;17.10;9.30;;;;;;;5.16;100.00;98817.94;669371;1270;142430;-78
2024/03/25 00:24:16;;;;;;;17.30;9.90;;;;;;;5.11;100.00;98807.38;670943;1261;138949;-79
2024/03/25 00:39:18;;;;;;;26.30;10.80;;;;;;;5.17;100.00;98798.73;669703;1264;139099;-79
2024/03/25 00:54:20;;;;;;;21.30;11.90;;;;;;;5.26;100.00;98796.42;670937;1262;139396;-79
2024/03/25 01:09:22;;;;;;;23.50;14.90;;;;;;;5.32;100.00;98787.73;671787;1261;139601;-79
2024/03/25 01:24:25;;;;;;;22.30;12.00;;;;;;;5.42;100.00;98795.85;671320;1262;139362;-79
2024/03/25 01:39:27;;;;;;;18.80;10.70;;;;;;;5.35;100.00;98796.47;671218;1257;139131;-78
2024/03/25 01:54:29;;;;;;;28.70;12.90;;;;;;;5.34;100.00;98785.63;672285;1257;139417;-80
2024/03/25 02:09:34;;;;;;;27.80;13.70;;;;;;;5.38;100.00;98776.40;670967;1261;139833;-78
2024/03/25 02:24:38;;;;;;;19.50;11.10;;;;;;;5.42;100.00;98765.64;669969;1261;139172;-78
2024/03/25 02:39:40;;;;;;;25.50;12.80;;;;;;;5.23;100.00;98763.05;671641;1261;139168;-79
2024/03/25 02:54:42;;;;;;;23.50;9.50;;;;;;;4.92;100.00;98777.24;674922;1273;139623;-80
2024/03/25 03:09:45;;;;;;;27.30;11.90;;;;;;;4.68;100.00;98788.33;672346;1260;139318;-79
2024/03/25 03:24:47;;;;;;;24.00;12.60;;;;;;;4.52;100.00;98793.38;673758;1261;139685;-79
2024/03/25 03:39:50;;;;;;;27.20;13.10;;;;;;;4.42;100.00;98787.45;670577;1263;139631;-79
2024/03/25 03:54:52;;;;;;;23.90;12.50;;;;;;;4.50;100.00;98787.09;673712;1257;140419;-79
2024/03/25 04:09:54;;;;;;;29.40;15.10;;;;;;;4.60;100.00;98784.70;670695;1260;139157;-78
2024/03/25 04:24:56;;;;;;;27.30;14.60;;;;;;;4.59;100.00;98804.03;670003;1263;139128;-78
2024/03/25 04:39:58;;;;;;;31.90;15.70;;;;;;;4.64;100.00;98807.40;670654;1258;139021;-78
2024/03/25 04:55:00;;;;;;;55.20;24.40;;;;;;;4.76;100.00;98818.65;669175;1275;191736;-78
2024/03/25 05:10:02;;;;;;;34.40;19.50;;;;;;;4.89;100.00;98827.10;671239;1262;139565;-79
2024/03/25 05:25:07;;;;;;;36.60;18.10;;;;;;;5.01;100.00;98836.28;669685;1263;139823;-78
2024/03/25 05:40:11;;;;;;;199.00;87.10;;;;;;;5.07;100.00;98841.08;668737;1261;139168;-79
2024/03/25 05:55:13;;;;;;;54.00;27.40;;;;;;;5.31;100.00;98850.94;668760;1261;139682;-78
2024/03/25 06:10:16;;;;;;;36.20;20.10;;;;;;;5.60;100.00;98866.56;669944;1260;139362;-79
2024/03/25 06:25:18;;;;;;;48.50;22.30;;;;;;;5.82;100.00;98887.29;670064;1262;140086;-79
2024/03/25 06:40:22;;;;;;;45.60;22.10;;;;;;;6.06;100.00;98908.77;668657;1262;140093;-79
2024/03/25 06:55:27;;;;;;;47.60;22.60;;;;;;;6.19;100.00;98919.63;669429;1272;139790;-79
2024/03/25 07:10:29;;;;;;;35.20;18.50;;;;;;;6.33;100.00;98936.36;669075;1261;139440;-79
2024/03/25 07:25:31;;;;;;;38.00;21.20;;;;;;;7.64;99.65;98947.86;668857;1263;139474;-79
2024/03/25 07:40:34;;;;;;;38.00;19.50;;;;;;;8.37;95.40;98961.85;673391;1261;139314;-80
2024/03/25 07:55:36;;;;;;;189.10;71.70;;;;;;;8.91;94.27;98966.38;669626;1261;140541;-78
2024/03/25 08:10:38;;;;;;;83.30;31.00;;;;;;;9.44;92.96;98977.73;672466;1260;140260;-78
2024/03/25 08:25:41;;;;;;;27.90;15.40;;;;;;;9.42;90.04;98980.20;667787;1262;139803;-78
2024/03/25 08:40:42;;;;;;;28.20;16.70;;;;;;;10.00;89.11;98982.88;668230;1257;140240;-79
2024/03/25 08:55:50;;;;;;;25.70;14.70;;;;;;;10.55;92.47;98985.80;668601;1260;138985;-79
2024/03/25 09:11:03;;;;;;;27.00;15.50;;;;;;;10.34;90.30;98996.55;670285;1261;139360;-79
2024/03/25 09:26:05;;;;;;;20.10;13.80;;;;;;;9.64;92.34;99012.20;672079;1262;140204;-79
2024/03/25 09:41:09;;;;;;;40.70;24.00;;;;;;;9.07;91.82;99018.67;674580;1266;139214;-80
2024/03/25 09:56:15;;;;;;;31.00;16.50;;;;;;;8.58;92.17;99028.46;672160;1259;139055;-80
2024/03/25 10:11:19;;;;;;;30.90;19.00;;;;;;;8.68;92.51;99029.90;673307;1263;140841;-80
2024/03/25 10:26:29;;;;;;;19.20;11.30;;;;;;;9.33;87.46;99036.40;673122;1261;140482;-80
2024/03/25 10:41:34;;;;;;;15.10;9.60;;;;;;;10.52;79.61;99050.20;672609;1260;139658;-80
2024/03/25 10:56:37;;;;;;;39.60;23.00;;;;;;;11.25;75.54;99055.33;670050;1261;140958;-79
2024/03/25 11:11:42;;;;;;;33.80;17.60;;;;;;;11.24;75.44;99062.77;670584;1263;139481;-79
2024/03/25 11:26:56;;;;;;;61.20;32.00;;;;;;;11.55;75.49;99061.31;677524;1262;140672;-78
2024/03/25 11:42:02;;;;;;;12.70;9.60;;;;;;;11.32;74.64;99064.23;679461;1261;139743;-80
2024/03/25 11:57:05;;;;;;;17.70;10.80;;;;;;;11.03;75.69;99064.19;672116;1259;139221;-79
2024/03/25 12:12:07;;;;;;;16.50;9.80;;;;;;;10.98;77.01;99063.05;674342;1262;139592;-80
2024/03/25 12:27:20;;;;;;;20.40;11.20;;;;;;;10.79;77.92;99086.76;680433;1261;139294;-79
2024/03/25 12:42:27;;;;;;;92.70;35.90;;;;;;;10.31;79.55;99102.13;675806;1262;139988;-80
2024/03/25 12:57:30;;;;;;;41.50;19.10;;;;;;;9.25;78.83;99104.41;682399;1262;140234;-81
2024/03/25 13:12:32;;;;;;;48.30;19.20;;;;;;;8.38;81.89;99096.40;682436;1261;139836;-79
2024/03/25 13:27:35;;;;;;;22.70;11.40;;;;;;;7.50;88.20;99107.77;682817;1262;139622;-79
2024/03/25 13:42:37;;;;;;;24.80;11.80;;;;;;;6.85;95.41;99138.37;682436;1262;139009;-80
2024/03/25 13:57:39;;;;;;;15.60;8.40;;;;;;;6.67;97.07;99156.30;682602;1260;139027;-81
2024/03/25 14:12:41;;;;;;;46.10;18.30;;;;;;;7.22;93.12;99158.21;682842;1263;138916;-78
2024/03/25 14:27:43;;;;;;;207.40;73.10;;;;;;;7.48;93.66;99142.86;682826;1262;139154;-77
2024/03/25 14:42:46;;;;;;;34.60;20.40;;;;;;;8.57;94.68;99135.69;683036;1263;140003;-78
2024/03/25 14:57:48;;;;;;;94.10;33.00;;;;;;;9.91;92.88;99138.23;682732;1262;139605;-78
2024/03/25 15:12:50;;;;;;;26.60;12.30;;;;;;;10.28;88.67;99140.12;682743;1262;139958;-79
2024/03/25 15:27:52;;;;;;;79.00;38.60;;;;;;;10.37;85.82;99142.17;682719;1270;139288;-79
2024/03/25 15:42:55;;;;;;;457.60;130.60;;;;;;;10.40;85.88;99147.66;682476;1262;139949;-78
2024/03/25 15:58:01;;;;;;;140.80;54.30;;;;;;;10.02;85.83;99153.64;682946;1263;139439;-80
2024/03/25 16:13:03;;;;;;;157.80;51.30;;;;;;;9.46;86.90;99167.73;682831;1260;139428;-79
2024/03/25 16:28:06;;;;;;;32.40;16.20;;;;;;;8.94;87.31;99180.91;683068;1262;140725;-79
2024/03/25 16:43:08;;;;;;;99.50;48.40;;;;;;;8.60;88.12;99189.27;682930;1263;139822;-78
2024/03/25 16:58:11;;;;;;;85.70;37.60;;;;;;;8.41;89.80;99204.16;683026;1269;151170;-79
2024/03/25 17:13:13;;;;;;;58.20;29.00;;;;;;;8.40;91.69;99211.58;682956;1263;139244;-79
2024/03/25 17:28:15;;;;;;;113.30;47.10;;;;;;;8.44;92.33;99219.75;683295;1270;141025;-79
2024/03/25 17:43:17;;;;;;;229.80;131.70;;;;;;;8.15;92.60;99232.37;683140;1257;139588;-80
2024/03/25 17:58:20;;;;;;;231.50;69.00;;;;;;;7.97;92.77;99247.15;683247;1264;141763;-78
2024/03/25 18:13:23;;;;;;;199.10;69.90;;;;;;;7.98;92.66;99266.17;682990;1260;139015;-80
2024/03/25 18:28:26;;;;;;;231.00;89.60;;;;;;;7.95;92.26;99269.66;683230;1263;139918;-79
2024/03/25 18:43:28;;;;;;;124.30;59.10;;;;;;;7.68;92.26;99287.53;683265;1257;139619;-79
2024/03/25 18:58:30;;;;;;;109.80;44.60;;;;;;;7.29;93.02;99298.09;683528;1260;138916;-79
2024/03/25 19:13:33;;;;;;;109.00;39.70;;;;;;;7.19;92.98;99312.64;683363;1256;139476;-79
2024/03/25 19:28:35;;;;;;;72.50;34.60;;;;;;;6.99;93.44;99325.27;683784;1256;140024;-77
2024/03/25 19:43:37;;;;;;;220.10;67.50;;;;;;;6.89;94.20;99337.73;683315;1257;139548;-79
2024/03/25 19:58:40;;;;;;;283.50;87.20;;;;;;;6.97;95.10;99349.37;683327;1256;140141;-80
2024/03/25 20:13:42;;;;;;;175.80;64.70;;;;;;;6.86;95.82;99358.36;683934;1256;139389;-80
2024/03/25 20:28:45;;;;;;;241.30;83.00;;;;;;;6.89;96.39;99366.08;683575;1257;139830;-79
2024/03/25 20:43:47;;;;;;;216.80;87.20;;;;;;;6.84;97.06;99370.52;682962;1257;140548;-79
2024/03/25 20:58:49;;;;;;;201.80;87.20;;;;;;;6.81;96.78;99373.41;683115;1257;139683;-80
2024/03/25 21:13:52;;;;;;;191.70;78.50;;;;;;;6.50;96.34;99385.96;682999;1257;138991;-79
2024/03/25 21:28:59;;;;;;;89.40;41.00;;;;;;;6.38;93.40;99393.52;683105;1259;138991;-77
2024/03/25 21:44:01;;;;;;;106.10;41.40;;;;;;;5.97;93.12;99402.11;683121;1260;138998;-79
2024/03/25 21:59:03;;;;;;;90.40;37.70;;;;;;;5.58;94.37;99397.98;682972;1256;139140;-80
2024/03/25 22:14:05;;;;;;;188.80;61.40;;;;;;;5.17;95.07;99412.23;683176;1262;139713;-79
2024/03/25 22:29:07;;;;;;;305.90;96.70;;;;;;;4.73;96.47;99421.02;683299;1256;140286;-80
2024/03/25 22:44:09;;;;;;;101.80;34.30;;;;;;;4.60;97.45;99427.68;683090;1260;138957;-79
2024/03/25 22:59:11;;;;;;;149.30;50.10;;;;;;;4.30;96.80;99430.52;683214;1258;139805;-79
2024/03/25 23:14:13;;;;;;;144.10;51.40;;;;;;;3.79;98.24;99438.73;683233;1257;139535;-79
2024/03/25 23:29:15;;;;;;;177.30;61.80;;;;;;;3.45;99.47;99443.43;683160;1256;139834;-78
2024/03/25 23:44:18;;;;;;;76.80;31.90;;;;;;;2.38;99.48;99447.02;683181;1262;139763;-78
2024/03/25 23:59:19;;;;;;;99.30;40.90;;;;;;;4.00;95.73;99453.80;683230;1260;139156;-78
